Time,TemperatureF,DewpointF,PressureIn,WindDirection,WindDirectionDegrees,WindSpeedMPH,WindSpeedGustMPH,Humidity,HourlyPrecipIn,Conditions,Clouds,dailyrainin,SoftwareType,DateUTC
2013-04-10 00:02:00,49.6,30.2,29.32,ESE,110,0.0,0.0,47,0.00,,OVC055,0.00,VWS V14.00,2013-04-10 07:02:00,
2013-04-10 00:07:00,49.6,30.2,29.32,ESE,110,0.0,0.0,47,0.00,,OVC055,0.00,VWS V14.00,2013-04-10 07:07:00,
2013-04-10 00:13:00,49.5,30.1,29.32,ESE,110,0.0,0.0,47,0.00,,OVC055,0.00,VWS V14.00,2013-04-10 07:13:00,
2013-04-10 00:18:00,49.5,30.1,29.32,ESE,110,0.0,0.0,47,0.00,,OVC055,0.00,VWS V14.00,2013-04-10 07:18:00,
2013-04-10 00:24:00,49.5,30.1,29.32,ESE,110,0.0,0.0,47,0.00,,OVC055,0.00,VWS V14.00,2013-04-10 07:24:00,
2013-04-10 00:29:00,49.5,30.1,29.32,ESE,110,0.0,0.0,47,0.00,,OVC055,0.00,VWS V14.00,2013-04-10 07:29:00,
2013-04-10 00:34:00,49.5,30.1,29.32,ESE,110,0.0,0.0,47,0.00,,OVC055,0.00,VWS V14.00,2013-04-10 07:34:00,
2013-04-10 00:40:00,49.5,30.1,29.32,ESE,110,0.0,0.0,47,0.00,,OVC055,0.00,VWS V14.00,2013-04-10 07:40:00,
2013-04-10 00:45:00,49.5,30.1,29.32,ENE,68,0.0,0.0,47,0.00,,OVC055,0.00,VWS V14.00,2013-04-10 07:45:00,
2013-04-10 00:50:00,49.5,30.1,29.32,ENE,68,0.0,0.0,47,0.00,,OVC055,0.00,VWS V14.00,2013-04-10 07:50:00,
2013-04-10 00:57:00,49.5,30.1,29.32,ENE,68,0.0,0.0,47,0.00,,OVC055,0.00,VWS V14.00,2013-04-10 07:57:00,
2013-04-10 01:03:00,49.5,30.1,29.32,ENE,68,0.0,2.7,47,0.00,,OVC044,0.00,VWS V14.00,2013-04-10 08:03:00,
2013-04-10 01:09:00,49.5,30.1,29.32,ENE,68,0.0,0.0,47,0.00,,OVC044,0.00,VWS V14.00,2013-04-10 08:09:00,
2013-04-10 01:14:00,49.5,30.1,29.32,ENE,73,0.0,0.0,47,0.00,,OVC044,0.00,VWS V14.00,2013-04-10 08:14:00,
2013-04-10 01:20:00,49.5,30.1,29.32,ENE,73,0.0,0.0,47,0.00,,OVC044,0.00,VWS V14.00,2013-04-10 08:20:00,
2013-04-10 01:25:00,49.5,30.1,29.32,ENE,68,2.2,2.2,47,0.00,,OVC044,0.00,VWS V14.00,2013-04-10 08:25:00,
2013-04-10 01:31:00,49.5,30.1,29.32,ENE,68,0.0,0.0,47,0.00,,OVC044,0.00,VWS V14.00,2013-04-10 08:31:00,
2013-04-10 01:36:00,49.5,30.1,29.32,ENE,68,0.0,0.0,47,0.00,,OVC044,0.00,VWS V14.00,2013-04-10 08:36:00,
2013-04-10 01:41:00,49.5,30.1,29.32,NE,50,0.0,0.0,47,0.00,,OVC044,0.00,VWS V14.00,2013-04-10 08:41:00,
2013-04-10 01:46:00,49.5,30.1,29.32,ENE,76,0.0,3.1,47,0.00,,OVC044,0.00,VWS V14.00,2013-04-10 08:46:00,
2013-04-10 01:52:00,49.5,29.6,29.32,ENE,76,2.7,2.7,46,0.00,,OVC044,0.00,VWS V14.00,2013-04-10 08:52:00,
2013-04-10 01:57:00,49.5,29.6,29.32,ENE,76,0.0,2.7,46,0.00,,OVC044,0.00,VWS V14.00,2013-04-10 08:57:00,
2013-04-10 02:03:00,49.3,29.4,29.32,ENE,76,0.0,0.0,46,0.00,,OVC041,0.00,VWS V14.00,2013-04-10 09:03:00,
2013-04-10 02:09:00,49.3,29.9,29.32,ENE,76,0.0,0.0,47,0.00,,OVC041,0.00,VWS V14.00,2013-04-10 09:09:00,
2013-04-10 02:14:00,49.3,29.4,29.32,NNE,18,3.1,3.1,46,0.00,,OVC041,0.00,VWS V14.00,2013-04-10 09:14:00,
2013-04-10 02:20:00,49.5,29.6,29.32,SE,126,0.0,0.0,46,0.00,,OVC041,0.00,VWS V14.00,2013-04-10 09:20:00,
2013-04-10 02:26:00,49.5,29.6,29.32,SE,127,0.0,0.0,46,0.00,,OVC041,0.00,VWS V14.00,2013-04-10 09:26:00,
2013-04-10 02:31:00,49.5,29.0,29.32,ESE,107,0.0,0.0,45,0.00,,OVC041,0.00,VWS V14.00,2013-04-10 09:31:00,
2013-04-10 02:37:00,49.6,29.2,29.32,East,98,0.0,2.7,45,0.00,,OVC041,0.00,VWS V14.00,2013-04-10 09:37:00,
2013-04-10 02:42:00,49.8,28.8,29.32,NNE,32,0.0,3.6,44,0.00,,OVC041,0.00,VWS V14.00,2013-04-10 09:42:00,
2013-04-10 02:48:00,50.2,28.0,29.32,ESE,112,3.1,3.1,42,0.00,,OVC041,0.00,VWS V14.00,2013-04-10 09:48:00,
2013-04-10 02:54:00,50.2,27.4,29.32,NNE,22,2.7,7.2,41,0.00,,OVC041,0.00,VWS V14.00,2013-04-10 09:54:00,
2013-04-10 02:59:00,50.4,27.0,29.32,SE,138,0.0,5.4,40,0.00,,OVC041,0.00,VWS V14.00,2013-04-10 09:59:00,
2013-04-10 03:05:00,50.5,26.5,29.32,SSE,156,3.1,6.7,39,0.00,,OVC037,0.00,VWS V14.00,2013-04-10 10:05:00,
2013-04-10 03:10:00,50.7,26.7,29.32,ESE,117,2.2,3.6,39,0.00,,OVC037,0.00,VWS V14.00,2013-04-10 10:10:00,
2013-04-10 03:16:00,50.7,26.7,29.32,ENE,71,3.6,4.0,39,0.00,,OVC037,0.00,VWS V14.00,2013-04-10 10:16:00,
2013-04-10 03:21:00,50.7,26.0,29.32,SE,140,3.1,3.6,38,0.00,,OVC037,0.00,VWS V14.00,2013-04-10 10:21:00,
2013-04-10 03:27:00,50.7,26.0,29.32,ESE,109,0.0,3.6,38,0.00,,OVC037,0.00,VWS V14.00,2013-04-10 10:27:00,
2013-04-10 03:32:00,50.5,25.9,29.32,ESE,119,2.2,3.1,38,0.00,,OVC037,0.00,VWS V14.00,2013-04-10 10:32:00,
2013-04-10 03:37:00,50.5,25.9,29.32,SE,129,0.0,0.0,38,0.00,,OVC037,0.00,VWS V14.00,2013-04-10 10:37:00,
2013-04-10 03:42:00,50.5,25.9,29.32,ESE,114,0.0,2.7,38,0.00,,OVC037,0.00,VWS V14.00,2013-04-10 10:42:00,
2013-04-10 03:48:00,50.4,26.4,29.32,ESE,118,0.0,0.0,39,0.00,,OVC037,0.00,VWS V14.00,2013-04-10 10:48:00,
2013-04-10 03:54:00,50.4,26.4,29.32,SSE,155,0.0,0.0,39,0.00,,OVC037,0.00,VWS V14.00,2013-04-10 10:54:00,
2013-04-10 03:59:00,50.4,26.4,29.32,ESE,110,0.0,2.2,39,0.00,,OVC037,0.00,VWS V14.00,2013-04-10 10:59:00,
2013-04-10 04:05:00,50.4,27.0,29.32,ESE,114,2.7,3.1,40,0.00,,OVC037,0.00,VWS V14.00,2013-04-10 11:05:00,
2013-04-10 04:11:00,50.2,26.8,29.32,ESE,114,0.0,0.0,40,0.00,,OVC037,0.00,VWS V14.00,2013-04-10 11:11:00,
2013-04-10 04:16:00,50.2,27.4,29.32,ESE,116,0.0,0.0,41,0.00,,OVC037,0.00,VWS V14.00,2013-04-10 11:16:00,
2013-04-10 04:22:00,50.0,27.2,29.32,SE,139,2.2,5.8,41,0.00,,OVC037,0.00,VWS V14.00,2013-04-10 11:22:00,
2013-04-10 04:27:00,49.8,27.7,29.32,SE,140,3.6,3.6,42,0.00,,OVC037,0.00,VWS V14.00,2013-04-10 11:27:00,
2013-04-10 04:33:00,49.8,27.7,29.32,SE,134,4.0,4.0,42,0.00,,OVC037,0.00,VWS V14.00,2013-04-10 11:33:00,
2013-04-10 04:39:00,49.8,27.7,29.32,SSE,150,2.7,4.0,42,0.00,,OVC037,0.00,VWS V14.00,2013-04-10 11:39:00,
2013-04-10 04:44:00,49.8,27.7,29.32,SSE,154,0.0,3.6,42,0.00,,OVC037,0.00,VWS V14.00,2013-04-10 11:44:00,
2013-04-10 04:50:00,50.0,27.8,29.32,South,180,0.0,2.7,42,0.00,,OVC037,0.00,VWS V14.00,2013-04-10 11:50:00,
2013-04-10 04:55:00,50.0,27.8,29.32,ESE,123,0.0,0.0,42,0.00,,OVC037,0.00,VWS V14.00,2013-04-10 11:55:00,
2013-04-10 05:02:00,49.8,27.7,29.32,SE,141,2.2,3.1,42,0.00,,OVC035,0.00,VWS V14.00,2013-04-10 12:02:00,
2013-04-10 05:08:00,49.8,28.2,29.32,NE,51,0.0,0.0,43,0.00,,OVC035,0.00,VWS V14.00,2013-04-10 12:08:00,
2013-04-10 05:13:00,49.8,28.2,29.32,East,82,2.7,3.1,43,0.00,,OVC035,0.00,VWS V14.00,2013-04-10 12:13:00,
2013-04-10 05:19:00,49.8,28.2,29.32,East,97,2.2,4.0,43,0.00,,OVC035,0.00,VWS V14.00,2013-04-10 12:19:00,
2013-04-10 05:25:00,49.8,28.8,29.32,ENE,77,0.0,3.1,44,0.00,,OVC035,0.00,VWS V14.00,2013-04-10 12:25:00,
2013-04-10 05:30:00,49.8,28.8,29.32,ESE,109,3.1,4.0,44,0.00,,OVC035,0.00,VWS V14.00,2013-04-10 12:30:00,
2013-04-10 05:36:00,49.8,29.4,29.32,ESE,103,0.0,0.0,45,0.00,,OVC035,0.00,VWS V14.00,2013-04-10 12:36:00,
2013-04-10 05:42:00,49.8,29.4,29.32,SE,128,2.7,3.6,45,0.00,,OVC035,0.00,VWS V14.00,2013-04-10 12:42:00,
2013-04-10 05:48:00,49.8,29.9,29.32,ESE,118,0.0,0.0,46,0.00,,OVC035,0.00,VWS V14.00,2013-04-10 12:48:00,
2013-04-10 05:54:00,49.8,29.9,29.32,SE,136,0.0,3.1,46,0.00,,OVC035,0.00,VWS V14.00,2013-04-10 12:54:00,
2013-04-10 06:00:00,49.8,30.4,29.32,East,92,3.1,3.1,47,0.00,,OVC035,0.00,VWS V14.00,2013-04-10 13:00:00,
2013-04-10 06:05:00,49.8,30.4,29.32,East,87,0.0,3.1,47,0.00,,OVC031,0.00,VWS V14.00,2013-04-10 13:05:00,
2013-04-10 06:11:00,49.8,30.4,29.32,ESE,122,3.1,3.6,47,0.00,,OVC031,0.00,VWS V14.00,2013-04-10 13:11:00,
2013-04-10 06:16:00,49.8,30.4,29.32,NE,49,2.7,4.0,47,0.00,,OVC031,0.00,VWS V14.00,2013-04-10 13:16:00,
2013-04-10 06:22:00,49.8,30.4,29.32,ENE,69,3.1,3.6,47,0.00,,OVC031,0.00,VWS V14.00,2013-04-10 13:22:00,
2013-04-10 06:28:00,49.8,30.9,29.32,South,175,0.0,0.0,48,0.00,,OVC031,0.00,VWS V14.00,2013-04-10 13:28:00,
2013-04-10 06:33:00,49.8,30.9,29.32,East,87,2.7,3.1,48,0.00,,OVC031,0.00,VWS V14.00,2013-04-10 13:33:00,
2013-04-10 06:39:00,50.0,31.1,29.32,ESE,109,0.0,0.0,48,0.00,,OVC031,0.00,VWS V14.00,2013-04-10 13:39:00,
2013-04-10 06:44:00,50.2,31.3,29.32,ESE,109,0.0,0.0,48,0.00,,OVC031,0.00,VWS V14.00,2013-04-10 13:44:00,
2013-04-10 06:50:00,50.2,31.3,29.32,ESE,109,0.0,2.2,48,0.00,,OVC031,0.00,VWS V14.00,2013-04-10 13:50:00,
2013-04-10 06:56:00,50.4,31.4,29.32,SSE,155,3.1,3.6,48,0.00,,OVC031,0.00,VWS V14.00,2013-04-10 13:56:00,
2013-04-10 07:01:00,50.4,31.4,29.32,SSE,168,2.7,2.7,48,0.00,,,0.00,VWS V14.00,2013-04-10 14:01:00,
2013-04-10 07:07:00,50.5,31.6,29.32,South,174,3.1,3.6,48,0.00,,,0.00,VWS V14.00,2013-04-10 14:07:00,
2013-04-10 07:12:00,50.7,32.3,29.32,SE,129,5.8,5.8,49,0.00,,,0.00,VWS V14.00,2013-04-10 14:12:00,
2013-04-10 07:17:00,50.9,32.4,29.32,SSE,147,5.4,5.8,49,0.00,,,0.00,VWS V14.00,2013-04-10 14:17:00,
2013-04-10 07:22:00,50.9,32.4,29.32,SE,126,4.0,4.0,49,0.00,,,0.00,VWS V14.00,2013-04-10 14:22:00,
2013-04-10 07:28:00,50.9,32.4,29.32,SSE,152,3.1,3.6,49,0.00,,,0.00,VWS V14.00,2013-04-10 14:28:00,
2013-04-10 07:33:00,50.9,32.9,29.32,South,190,2.7,4.0,50,0.00,,,0.00,VWS V14.00,2013-04-10 14:33:00,
2013-04-10 07:39:00,50.9,32.9,29.32,SSE,165,5.4,5.4,50,0.00,,,0.00,VWS V14.00,2013-04-10 14:39:00,
2013-04-10 07:45:00,51.1,33.6,29.32,SE,144,0.0,3.6,51,0.00,,,0.00,VWS V14.00,2013-04-10 14:45:00,
2013-04-10 07:50:00,51.1,33.6,29.32,SE,142,0.0,3.6,51,0.00,,,0.00,VWS V14.00,2013-04-10 14:50:00,
2013-04-10 07:56:00,51.1,34.1,29.32,SE,141,2.2,4.9,52,0.00,,,0.00,VWS V14.00,2013-04-10 14:56:00,
2013-04-10 08:01:00,51.1,34.1,29.32,East,98,0.0,0.0,52,0.00,,-RA,0.00,VWS V14.00,2013-04-10 15:01:00,
2013-04-10 08:07:00,51.1,34.6,29.32,SE,138,2.7,4.0,53,0.00,,-RA,0.00,VWS V14.00,2013-04-10 15:07:00,
2013-04-10 08:13:00,51.1,34.6,29.32,SE,142,0.0,0.0,53,0.00,,-RA,0.00,VWS V14.00,2013-04-10 15:13:00,
2013-04-10 08:18:00,51.1,35.0,29.32,ESE,116,0.0,3.1,54,0.00,,-RA,0.00,VWS V14.00,2013-04-10 15:18:00,
2013-04-10 08:24:00,51.3,35.2,29.32,West,280,2.7,6.3,54,0.04,,-RA,0.04,VWS V14.00,2013-04-10 15:24:00,
2013-04-10 08:29:00,51.3,35.7,29.32,SSE,152,0.0,0.0,55,0.04,,-RA,0.04,VWS V14.00,2013-04-10 15:29:00,
2013-04-10 08:35:00,51.3,36.1,29.32,SW,230,2.7,5.8,56,0.08,,-RA,0.08,VWS V14.00,2013-04-10 15:35:00,
2013-04-10 08:41:00,51.3,36.6,29.32,West,281,2.2,2.2,57,0.08,,-RA,0.08,VWS V14.00,2013-04-10 15:41:00,
2013-04-10 08:46:00,51.3,36.6,29.32,West,268,0.0,2.7,57,0.08,,-RA,0.08,VWS V14.00,2013-04-10 15:46:00,
2013-04-10 08:52:00,51.3,37.0,29.32,SSW,211,0.0,3.6,58,0.08,,-RA,0.08,VWS V14.00,2013-04-10 15:52:00,
2013-04-10 08:57:00,51.3,37.4,29.32,SSW,211,0.0,0.0,59,0.08,,-RA,0.08,VWS V14.00,2013-04-10 15:57:00,
2013-04-10 09:03:00,51.3,37.9,29.32,West,274,0.0,3.1,60,0.08,,-RA,0.08,VWS V14.00,2013-04-10 16:03:00,
2013-04-10 09:08:00,51.3,37.9,29.32,WSW,253,2.7,3.6,60,0.08,,-RA,0.08,VWS V14.00,2013-04-10 16:08:00,
2013-04-10 09:13:00,51.3,38.3,29.32,SSW,192,2.7,3.6,61,0.08,,-RA,0.08,VWS V14.00,2013-04-10 16:13:00,
2013-04-10 09:18:00,51.3,38.3,29.32,SW,232,0.0,3.6,61,0.12,,-RA,0.12,VWS V14.00,2013-04-10 16:18:00,
2013-04-10 09:24:00,51.3,38.3,29.32,South,176,0.0,0.0,61,0.08,,-RA,0.12,VWS V14.00,2013-04-10 16:24:00,
2013-04-10 09:29:00,51.3,38.7,29.32,SW,226,2.7,3.1,62,0.08,,-RA,0.12,VWS V14.00,2013-04-10 16:29:00,
2013-04-10 09:35:00,51.3,38.7,29.32,WNW,287,0.0,2.7,62,0.04,,-RA,0.12,VWS V14.00,2013-04-10 16:35:00,
2013-04-10 09:41:00,51.4,39.3,29.32,SW,222,2.2,2.2,63,0.04,,-RA,0.12,VWS V14.00,2013-04-10 16:41:00,
2013-04-10 09:46:00,51.4,39.3,29.32,SSE,149,0.0,2.7,63,0.08,,-RA,0.16,VWS V14.00,2013-04-10 16:46:00,
2013-04-10 09:52:00,51.4,39.7,29.32,WNW,292,2.7,2.7,64,0.08,,-RA,0.16,VWS V14.00,2013-04-10 16:52:00,
2013-04-10 09:58:00,51.4,39.7,29.32,South,177,3.6,3.6,64,0.08,,-RA,0.16,VWS V14.00,2013-04-10 16:58:00,
2013-04-10 10:03:00,51.4,40.1,29.32,SSE,164,0.0,4.0,65,0.08,,-RA,0.16,VWS V14.00,2013-04-10 17:03:00,
2013-04-10 10:09:00,51.3,39.9,29.32,SW,218,3.1,4.9,65,0.08,,-RA,0.16,VWS V14.00,2013-04-10 17:09:00,
2013-04-10 10:14:00,51.3,39.9,29.32,SW,227,3.6,3.6,65,0.08,,-RA,0.16,VWS V14.00,2013-04-10 17:14:00,
2013-04-10 10:19:00,51.1,40.1,29.32,West,273,5.4,5.4,66,0.04,,-RA,0.16,VWS V14.00,2013-04-10 17:19:00,
2013-04-10 10:24:00,51.1,40.1,29.32,SSW,213,5.8,5.8,66,0.04,,-RA,0.16,VWS V14.00,2013-04-10 17:24:00,
2013-04-10 10:30:00,51.1,40.1,29.32,SSE,154,0.0,2.7,66,0.04,,-RA,0.16,VWS V14.00,2013-04-10 17:30:00,
2013-04-10 10:35:00,51.1,40.1,29.32,SSW,208,0.0,2.7,66,0.04,,-RA,0.16,VWS V14.00,2013-04-10 17:35:00,
2013-04-10 10:41:00,50.9,40.0,29.32,SW,214,0.0,2.2,66,0.04,,-RA,0.16,VWS V14.00,2013-04-10 17:41:00,
2013-04-10 10:47:00,50.9,40.0,29.32,SW,230,4.9,4.9,66,0.00,,-RA,0.16,VWS V14.00,2013-04-10 17:47:00,
2013-04-10 10:52:00,51.1,40.1,29.32,South,188,3.6,3.6,66,0.00,,-RA,0.16,VWS V14.00,2013-04-10 17:52:00,
2013-04-10 10:58:00,51.3,40.3,29.32,ESE,122,4.0,4.9,66,0.00,,-RA,0.16,VWS V14.00,2013-04-10 17:58:00,
2013-04-10 11:03:00,51.4,40.5,29.32,WNW,286,4.0,4.0,66,0.00,,OVC070,0.16,VWS V14.00,2013-04-10 18:03:00,
2013-04-10 11:09:00,51.6,40.7,29.32,SW,218,2.7,7.6,66,0.00,,OVC070,0.16,VWS V14.00,2013-04-10 18:09:00,
2013-04-10 11:14:00,52.0,41.0,29.32,NNE,16,3.6,3.6,66,0.00,,OVC070,0.16,VWS V14.00,2013-04-10 18:14:00,
2013-04-10 11:20:00,52.3,41.3,29.32,West,280,0.0,3.1,66,0.00,,OVC070,0.16,VWS V14.00,2013-04-10 18:20:00,
2013-04-10 11:26:00,52.9,41.8,29.32,SE,136,2.7,5.4,66,0.00,,OVC070,0.16,VWS V14.00,2013-04-10 18:26:00,
2013-04-10 11:31:00,53.1,42.0,29.32,South,191,0.0,3.1,66,0.00,,OVC070,0.16,VWS V14.00,2013-04-10 18:31:00,
2013-04-10 11:37:00,53.1,42.0,29.32,SW,225,0.0,6.3,66,0.00,,OVC070,0.16,VWS V14.00,2013-04-10 18:37:00,
2013-04-10 11:43:00,52.9,41.8,29.32,WNW,287,0.0,3.1,66,0.00,,OVC070,0.16,VWS V14.00,2013-04-10 18:43:00,
2013-04-10 11:48:00,53.1,41.6,29.32,SSW,209,2.7,3.6,65,0.00,,OVC070,0.16,VWS V14.00,2013-04-10 18:48:00,
2013-04-10 11:54:00,52.7,40.9,29.32,WSW,247,5.4,8.7,64,0.00,,OVC070,0.16,VWS V14.00,2013-04-10 18:54:00,
2013-04-10 11:59:00,52.5,39.0,29.32,South,180,5.4,6.3,60,0.00,,OVC070,0.16,VWS V14.00,2013-04-10 18:59:00,
2013-04-10 12:05:00,52.3,37.1,29.32,West,275,3.6,11.0,56,0.00,,OVC029,0.16,VWS V14.00,2013-04-10 19:05:00,
2013-04-10 12:10:00,52.2,35.6,29.32,NW,326,3.1,8.7,53,0.00,,OVC029,0.16,VWS V14.00,2013-04-10 19:10:00,
2013-04-10 12:16:00,52.2,35.1,29.32,SSE,158,3.1,5.8,52,0.00,,OVC029,0.16,VWS V14.00,2013-04-10 19:16:00,
2013-04-10 12:22:00,52.0,34.4,29.32,NNW,334,3.1,3.1,51,0.00,,OVC029,0.16,VWS V14.00,2013-04-10 19:22:00,
2013-04-10 12:27:00,52.2,34.6,29.32,WSW,239,3.1,3.1,51,0.00,,OVC029,0.16,VWS V14.00,2013-04-10 19:27:00,
2013-04-10 12:33:00,52.7,35.1,29.32,SW,214,4.0,4.0,51,0.00,,OVC029,0.16,VWS V14.00,2013-04-10 19:33:00,
2013-04-10 12:39:00,53.1,34.9,29.32,West,268,3.6,5.4,50,0.00,,OVC029,0.16,VWS V14.00,2013-04-10 19:39:00,
2013-04-10 12:44:00,53.2,34.1,29.32,SSW,200,2.2,6.3,48,0.00,,OVC029,0.16,VWS V14.00,2013-04-10 19:44:00,
2013-04-10 12:50:00,54.1,33.8,29.32,SW,229,2.7,4.0,46,0.00,,OVC029,0.16,VWS V14.00,2013-04-10 19:50:00,
2013-04-10 12:55:00,54.7,33.8,29.32,SW,216,5.4,11.0,45,0.00,,OVC029,0.16,VWS V14.00,2013-04-10 19:55:00,
2013-04-10 13:01:00,55.0,33.0,29.32,West,265,3.1,3.6,43,0.00,,OVC024,0.16,VWS V14.00,2013-04-10 20:01:00,
2013-04-10 13:07:00,55.0,32.4,29.32,SSW,210,3.1,5.4,42,0.00,,OVC024,0.16,VWS V14.00,2013-04-10 20:07:00,
2013-04-10 13:12:00,55.0,31.8,29.32,South,178,7.6,7.6,41,0.00,,OVC024,0.16,VWS V14.00,2013-04-10 20:12:00,
2013-04-10 13:17:00,54.9,31.6,29.32,SSE,153,3.1,5.4,41,0.00,,OVC024,0.16,VWS V14.00,2013-04-10 20:17:00,
2013-04-10 13:23:00,54.5,30.1,29.32,West,273,5.4,6.3,39,0.00,,OVC024,0.16,VWS V14.00,2013-04-10 20:23:00,
2013-04-10 13:29:00,54.5,30.1,29.32,SW,231,3.6,3.6,39,0.00,,OVC024,0.16,VWS V14.00,2013-04-10 20:29:00,
2013-04-10 13:35:00,54.7,30.2,29.32,SW,216,3.1,3.1,39,0.00,,OVC024,0.16,VWS V14.00,2013-04-10 20:35:00,
2013-04-10 13:40:00,55.0,29.9,29.32,SSW,213,4.9,4.9,38,0.00,,OVC024,0.16,VWS V14.00,2013-04-10 20:40:00,
2013-04-10 13:46:00,55.2,30.1,29.32,NW,320,3.1,3.1,38,0.00,,OVC024,0.16,VWS V14.00,2013-04-10 20:46:00,
2013-04-10 13:51:00,55.6,29.7,29.32,SW,225,4.0,5.8,37,0.00,,OVC024,0.16,VWS V14.00,2013-04-10 20:51:00,
2013-04-10 13:57:00,56.8,30.9,29.32,WSW,237,4.9,11.9,37,0.00,,OVC024,0.16,VWS V14.00,2013-04-10 20:57:00,
2013-04-10 14:03:00,57.9,31.1,29.32,West,280,3.6,4.0,36,0.00,,BKN090,0.16,VWS V14.00,2013-04-10 21:03:00,
2013-04-10 14:08:00,58.5,30.9,29.32,SSE,154,6.3,10.1,35,0.00,,BKN090,0.16,VWS V14.00,2013-04-10 21:08:00,
2013-04-10 14:14:00,58.3,29.3,29.32,SSW,211,7.2,7.2,33,0.00,,BKN090,0.16,VWS V14.00,2013-04-10 21:14:00,
2013-04-10 14:19:00,57.6,28.7,29.32,WSW,252,4.9,5.8,33,0.00,,BKN090,0.16,VWS V14.00,2013-04-10 21:19:00,
2013-04-10 14:25:00,57.2,29.1,29.32,SW,230,2.7,5.4,34,0.00,,BKN090,0.16,VWS V14.00,2013-04-10 21:25:00,
2013-04-10 14:31:00,57.7,29.6,29.32,SW,223,2.7,4.0,34,0.00,,BKN090,0.16,VWS V14.00,2013-04-10 21:31:00,
2013-04-10 14:36:00,58.8,30.5,29.32,WSW,244,5.4,5.4,34,0.00,,BKN090,0.16,VWS V14.00,2013-04-10 21:36:00,
2013-04-10 14:42:00,59.4,29.5,29.32,SSW,198,4.0,5.4,32,0.00,,BKN090,0.16,VWS V14.00,2013-04-10 21:42:00,
2013-04-10 14:47:00,59.7,28.3,29.32,NNW,330,3.6,3.6,30,0.00,,BKN090,0.16,VWS V14.00,2013-04-10 21:47:00,
2013-04-10 14:53:00,59.9,27.6,29.32,West,259,3.1,5.4,29,0.00,,BKN090,0.16,VWS V14.00,2013-04-10 21:53:00,
2013-04-10 14:59:00,59.9,26.7,29.32,SSE,154,4.9,4.9,28,0.00,,BKN090,0.16,VWS V14.00,2013-04-10 21:59:00,
2013-04-10 15:04:00,59.4,26.3,29.32,SE,131,3.6,3.6,28,0.00,,CLR,0.16,VWS V14.00,2013-04-10 22:04:00,
2013-04-10 15:10:00,58.5,25.5,29.32,SW,218,3.6,10.1,28,0.00,,CLR,0.16,VWS V14.00,2013-04-10 22:10:00,
2013-04-10 15:15:00,58.1,25.2,29.32,South,183,8.1,10.1,28,0.00,,CLR,0.16,VWS V14.00,2013-04-10 22:15:00,
2013-04-10 15:21:00,57.7,24.9,29.32,WSW,249,3.6,8.1,28,0.00,,CLR,0.16,VWS V14.00,2013-04-10 22:21:00,
2013-04-10 15:27:00,57.2,23.5,29.32,West,270,3.1,3.6,27,0.00,,CLR,0.16,VWS V14.00,2013-04-10 22:27:00,
2013-04-10 15:32:00,57.2,24.4,29.32,West,269,4.0,5.8,28,0.00,,CLR,0.16,VWS V14.00,2013-04-10 22:32:00,
2013-04-10 15:38:00,57.0,24.3,29.32,West,275,4.9,5.8,28,0.00,,CLR,0.16,VWS V14.00,2013-04-10 22:38:00,
2013-04-10 15:43:00,56.7,24.0,29.32,SW,222,3.1,4.0,28,0.00,,CLR,0.16,VWS V14.00,2013-04-10 22:43:00,
2013-04-10 15:49:00,56.1,23.5,29.32,West,274,3.6,4.0,28,0.00,,CLR,0.16,VWS V14.00,2013-04-10 22:49:00,
2013-04-10 15:55:00,55.9,24.2,29.32,SW,217,4.0,6.3,29,0.00,,CLR,0.16,VWS V14.00,2013-04-10 22:55:00,
2013-04-10 16:00:00,55.8,24.0,29.32,SW,214,2.7,5.8,29,0.00,,CLR,0.16,VWS V14.00,2013-04-10 23:00:00,
2013-04-10 16:06:00,55.6,23.9,29.32,SSW,207,0.0,6.3,29,0.00,,OVC060,0.16,VWS V14.00,2013-04-10 23:06:00,
2013-04-10 16:11:00,55.4,23.7,29.32,SW,226,2.7,6.3,29,0.00,,OVC060,0.16,VWS V14.00,2013-04-10 23:11:00,
2013-04-10 16:16:00,55.2,24.4,29.32,SSW,212,2.7,7.2,30,0.00,,OVC060,0.16,VWS V14.00,2013-04-10 23:16:00,
2013-04-10 16:22:00,55.4,24.5,29.32,West,265,0.0,3.6,30,0.00,,OVC060,0.16,VWS V14.00,2013-04-10 23:22:00,
2013-04-10 16:27:00,55.2,24.4,29.32,WNW,295,3.6,5.8,30,0.00,,OVC060,0.16,VWS V14.00,2013-04-10 23:27:00,
2013-04-10 16:33:00,55.2,23.5,29.32,West,268,4.0,4.9,29,0.00,,OVC060,0.16,VWS V14.00,2013-04-10 23:33:00,
2013-04-10 16:39:00,55.4,23.7,29.32,SSW,199,4.9,4.9,29,0.00,,OVC060,0.16,VWS V14.00,2013-04-10 23:39:00,
2013-04-10 16:44:00,55.9,24.2,29.32,SW,218,2.7,4.9,29,0.00,,OVC060,0.16,VWS V14.00,2013-04-10 23:44:00,
2013-04-10 16:50:00,56.7,24.0,29.32,West,278,5.4,5.4,28,0.00,,OVC060,0.16,VWS V14.00,2013-04-10 23:50:00,
2013-04-10 16:56:00,56.8,23.2,29.32,West,265,2.7,4.0,27,0.00,,OVC060,0.16,VWS V14.00,2013-04-10 23:56:00,
2013-04-10 17:02:00,56.3,22.8,29.32,South,174,2.7,6.3,27,0.00,,OVC070,0.16,VWS V14.00,2013-04-11 00:02:00,
2013-04-10 17:07:00,55.9,23.3,29.32,WNW,293,3.6,4.5,28,0.00,,OVC070,0.16,VWS V14.00,2013-04-11 00:07:00,
2013-04-10 17:12:00,55.4,22.0,29.32,SSE,160,2.2,4.0,27,0.00,,OVC070,0.16,VWS V14.00,2013-04-11 00:12:00,
2013-04-10 17:18:00,55.0,22.5,29.32,SW,232,2.2,3.6,28,0.00,,OVC070,0.16,VWS V14.00,2013-04-11 00:18:00,
2013-04-10 17:24:00,54.9,23.2,29.32,SW,227,2.7,3.6,29,0.00,,OVC070,0.16,VWS V14.00,2013-04-11 00:24:00,
2013-04-10 17:30:00,54.9,22.4,29.32,WNW,282,6.3,6.3,28,0.00,,OVC070,0.16,VWS V14.00,2013-04-11 00:30:00,
2013-04-10 17:35:00,54.5,22.1,29.32,SW,228,5.8,6.7,28,0.00,,OVC070,0.16,VWS V14.00,2013-04-11 00:35:00,
2013-04-10 17:40:00,54.1,22.6,29.32,WSW,250,3.1,3.6,29,0.00,,OVC070,0.16,VWS V14.00,2013-04-11 00:40:00,
2013-04-10 17:46:00,53.8,22.3,29.32,SSE,165,0.0,0.0,29,0.00,,OVC070,0.16,VWS V14.00,2013-04-11 00:46:00,
2013-04-10 17:52:00,53.6,22.1,29.32,SW,221,0.0,3.6,29,0.00,,OVC070,0.16,VWS V14.00,2013-04-11 00:52:00,
2013-04-10 17:58:00,53.4,22.8,29.32,South,184,4.0,8.1,30,0.00,,OVC070,0.16,VWS V14.00,2013-04-11 00:58:00,
2013-04-10 18:03:00,53.2,22.6,29.32,West,267,3.6,3.6,30,0.00,,BKN070,0.16,VWS V14.00,2013-04-11 01:03:00,
2013-04-10 18:08:00,52.9,22.3,29.32,SW,225,3.1,3.1,30,0.00,,BKN070,0.16,VWS V14.00,2013-04-11 01:08:00,
2013-04-10 18:14:00,52.7,22.2,29.32,WSW,258,3.1,5.8,30,0.00,,BKN070,0.16,VWS V14.00,2013-04-11 01:14:00,
2013-04-10 18:19:00,52.3,21.8,29.32,SW,226,5.4,5.8,30,0.00,,BKN070,0.16,VWS V14.00,2013-04-11 01:19:00,
2013-04-10 18:25:00,52.0,21.5,29.32,SSE,163,2.7,8.1,30,0.00,,BKN070,0.16,VWS V14.00,2013-04-11 01:25:00,
2013-04-10 18:31:00,51.8,22.1,29.32,NW,314,4.9,5.8,31,0.00,,BKN070,0.16,VWS V14.00,2013-04-11 01:31:00,
2013-04-10 18:37:00,51.6,22.0,29.32,SSE,157,4.0,6.3,31,0.00,,BKN070,0.16,VWS V14.00,2013-04-11 01:37:00,
2013-04-10 18:42:00,51.4,22.6,29.32,WSW,255,3.6,3.6,32,0.00,,BKN070,0.16,VWS V14.00,2013-04-11 01:42:00,
2013-04-10 18:47:00,51.3,22.4,29.32,WNW,303,2.2,5.4,32,0.00,,BKN070,0.16,VWS V14.00,2013-04-11 01:47:00,
2013-04-10 18:53:00,51.1,22.3,29.32,West,278,2.7,3.6,32,0.00,,BKN070,0.16,VWS V14.00,2013-04-11 01:53:00,
2013-04-10 18:58:00,50.9,22.1,29.32,WNW,291,4.0,4.0,32,0.00,,BKN070,0.16,VWS V14.00,2013-04-11 01:58:00,
2013-04-10 19:04:00,50.9,22.8,29.32,West,268,2.7,2.7,33,0.00,,OVC048,0.16,VWS V14.00,2013-04-11 02:04:00,
2013-04-10 19:09:00,50.7,22.7,29.32,SE,136,2.2,3.1,33,0.00,,OVC048,0.16,VWS V14.00,2013-04-11 02:09:00,
2013-04-10 19:15:00,50.7,22.7,29.32,SSE,163,4.0,4.9,33,0.00,,OVC048,0.16,VWS V14.00,2013-04-11 02:15:00,
2013-04-10 19:20:00,50.5,22.5,29.32,WNW,285,0.0,4.0,33,0.00,,OVC048,0.16,VWS V14.00,2013-04-11 02:20:00,
2013-04-10 19:25:00,50.5,22.5,29.32,South,170,2.7,3.1,33,0.00,,OVC048,0.16,VWS V14.00,2013-04-11 02:25:00,
2013-04-10 19:31:00,50.4,22.4,29.32,SE,145,0.0,2.7,33,0.00,,OVC048,0.16,VWS V14.00,2013-04-11 02:31:00,
2013-04-10 19:36:00,50.4,22.4,29.32,SW,231,0.0,0.0,33,0.00,,OVC048,0.16,VWS V14.00,2013-04-11 02:36:00,
2013-04-10 19:41:00,50.2,22.2,29.32,WSW,240,2.7,2.7,33,0.00,,OVC048,0.16,VWS V14.00,2013-04-11 02:41:00,
2013-04-10 19:46:00,50.2,22.2,29.32,SW,217,2.7,2.7,33,0.00,,OVC048,0.16,VWS V14.00,2013-04-11 02:46:00,
2013-04-10 19:52:00,50.0,22.0,29.32,SW,229,0.0,0.0,33,0.00,,OVC048,0.16,VWS V14.00,2013-04-11 02:52:00,
2013-04-10 19:57:00,50.0,22.8,29.32,SW,231,0.0,0.0,34,0.00,,OVC048,0.16,VWS V14.00,2013-04-11 02:57:00,
2013-04-10 20:03:00,49.8,22.6,29.32,SSE,151,3.1,3.1,34,0.00,,OVC044,0.16,VWS V14.00,2013-04-11 03:03:00,
2013-04-10 20:09:00,49.6,23.1,29.32,SE,136,0.0,0.0,35,0.00,,OVC044,0.16,VWS V14.00,2013-04-11 03:09:00,
2013-04-10 20:14:00,49.5,23.0,29.32,SE,132,3.6,3.6,35,0.00,,OVC044,0.16,VWS V14.00,2013-04-11 03:14:00,
2013-04-10 20:20:00,49.5,23.0,29.32,WSW,239,0.0,0.0,35,0.00,,OVC044,0.16,VWS V14.00,2013-04-11 03:20:00,
2013-04-10 20:25:00,49.3,23.5,29.32,SSE,167,2.2,2.2,36,0.00,,OVC044,0.16,VWS V14.00,2013-04-11 03:25:00,
2013-04-10 20:31:00,49.3,23.5,29.32,SSE,153,0.0,3.6,36,0.00,,OVC044,0.16,VWS V14.00,2013-04-11 03:31:00,
2013-04-10 20:37:00,49.1,23.3,29.32,SE,124,3.6,5.4,36,0.00,,OVC044,0.16,VWS V14.00,2013-04-11 03:37:00,
2013-04-10 20:42:00,48.9,23.8,29.32,SE,124,0.0,0.0,37,0.00,,OVC044,0.16,VWS V14.00,2013-04-11 03:42:00,
2013-04-10 20:47:00,48.9,23.8,29.32,SE,129,0.0,4.0,37,0.00,,OVC044,0.16,VWS V14.00,2013-04-11 03:47:00,
2013-04-10 20:53:00,48.7,23.6,29.32,SE,129,0.0,0.0,37,0.00,,OVC044,0.16,VWS V14.00,2013-04-11 03:53:00,
2013-04-10 20:58:00,48.7,23.6,29.32,SE,138,4.0,5.4,37,0.00,,OVC044,0.16,VWS V14.00,2013-04-11 03:58:00,
2013-04-10 21:00:00,48.7,23.6,29.32,SE,143,0.0,4.0,37,0.00,,OVC044,0.16,VWS V14.00,2013-04-11 04:00:00,
2013-04-10 21:03:00,48.7,23.6,29.32,WSW,253,0.0,3.6,37,0.00,,OVC038,0.16,VWS V14.00,2013-04-11 04:03:00,
2013-04-10 21:07:00,48.6,23.5,29.32,SSE,153,3.1,4.5,37,0.00,,OVC038,0.16,VWS V14.00,2013-04-11 04:07:00,
2013-04-10 21:12:00,48.6,23.5,29.32,East,79,0.0,0.0,37,0.00,,OVC038,0.16,VWS V14.00,2013-04-11 04:12:00,
2013-04-10 21:17:00,48.4,23.3,29.32,SE,145,3.6,4.0,37,0.00,,OVC038,0.16,VWS V14.00,2013-04-11 04:17:00,
2013-04-10 21:23:00,48.2,23.2,29.32,SE,136,0.0,0.0,37,0.00,,OVC038,0.16,VWS V14.00,2013-04-11 04:23:00,
2013-04-10 21:28:00,48.2,23.2,29.32,ESE,120,2.7,4.0,37,0.00,,OVC038,0.16,VWS V14.00,2013-04-11 04:28:00,
2013-04-10 21:34:00,48.0,23.6,29.32,SSE,153,2.2,4.9,38,0.00,,OVC038,0.16,VWS V14.00,2013-04-11 04:34:00,
2013-04-10 21:40:00,48.0,23.6,29.32,SSW,210,0.0,0.0,38,0.00,,OVC038,0.16,VWS V14.00,2013-04-11 04:40:00,
2013-04-10 21:45:00,48.0,23.6,29.32,ESE,114,0.0,2.7,38,0.00,,OVC038,0.16,VWS V14.00,2013-04-11 04:45:00,
2013-04-10 21:51:00,48.0,23.6,29.32,SE,129,0.0,0.0,38,0.00,,OVC038,0.16,VWS V14.00,2013-04-11 04:51:00,
2013-04-10 21:56:00,47.8,23.5,29.32,SE,137,2.2,2.2,38,0.00,,OVC038,0.16,VWS V14.00,2013-04-11 04:56:00,
2013-04-10 22:02:00,47.8,23.5,29.32,SSE,164,0.0,0.0,38,0.00,,OVC036,0.16,VWS V14.00,2013-04-11 05:02:00,
2013-04-10 22:08:00,47.7,23.3,29.32,East,82,0.0,3.1,38,0.00,,OVC036,0.16,VWS V14.00,2013-04-11 05:08:00,
2013-04-10 22:13:00,47.7,23.3,29.32,East,82,0.0,0.0,38,0.00,,OVC036,0.16,VWS V14.00,2013-04-11 05:13:00,
2013-04-10 22:19:00,47.7,23.3,29.32,East,82,3.1,3.1,38,0.00,,OVC036,0.16,VWS V14.00,2013-04-11 05:19:00,
2013-04-10 22:24:00,47.7,23.3,29.32,SSE,152,0.0,0.0,38,0.00,,OVC036,0.16,VWS V14.00,2013-04-11 05:24:00,
2013-04-10 22:30:00,47.7,23.3,29.32,SSE,152,0.0,0.0,38,0.00,,OVC036,0.16,VWS V14.00,2013-04-11 05:30:00,
2013-04-10 22:36:00,47.7,23.3,29.32,SSE,152,0.0,0.0,38,0.00,,OVC036,0.16,VWS V14.00,2013-04-11 05:36:00,
2013-04-10 22:41:00,47.5,23.8,29.32,ESE,119,3.1,3.1,39,0.00,,OVC036,0.16,VWS V14.00,2013-04-11 05:41:00,
2013-04-10 22:46:00,47.5,23.8,29.32,South,185,2.2,2.2,39,0.00,,OVC036,0.16,VWS V14.00,2013-04-11 05:46:00,
2013-04-10 22:52:00,47.5,23.8,29.32,SW,219,0.0,2.7,39,0.00,,OVC036,0.16,VWS V14.00,2013-04-11 05:52:00,
2013-04-10 22:57:00,47.3,23.6,29.32,WSW,252,0.0,3.6,39,0.00,,OVC036,0.16,VWS V14.00,2013-04-11 05:57:00,
2013-04-10 23:02:00,47.3,23.6,29.32,SE,144,0.0,0.0,39,0.00,,OVC034,0.16,VWS V14.00,2013-04-11 06:02:00,
2013-04-10 23:08:00,47.3,23.6,29.32,SE,144,0.0,0.0,39,0.00,,OVC034,0.16,VWS V14.00,2013-04-11 06:08:00,
2013-04-10 23:13:00,47.3,23.6,29.32,SE,146,2.2,3.1,39,0.00,,OVC034,0.16,VWS V14.00,2013-04-11 06:13:00,
2013-04-10 23:19:00,47.1,23.5,29.32,SE,146,0.0,0.0,39,0.00,,OVC034,0.16,VWS V14.00,2013-04-11 06:19:00,
2013-04-10 23:25:00,47.1,23.5,29.32,South,178,2.7,2.7,39,0.00,,OVC034,0.16,VWS V14.00,2013-04-11 06:25:00,
2013-04-10 23:30:00,47.1,23.5,29.32,SE,145,0.0,0.0,39,0.00,,OVC034,0.16,VWS V14.00,2013-04-11 06:30:00,
2013-04-10 23:36:00,47.1,23.5,29.32,SE,145,0.0,0.0,39,0.00,,OVC034,0.16,VWS V14.00,2013-04-11 06:36:00,
2013-04-10 23:41:00,47.1,23.5,29.32,SSE,147,0.0,0.0,39,0.00,,OVC034,0.16,VWS V14.00,2013-04-11 06:41:00,
2013-04-10 23:47:00,47.1,24.1,29.32,ENE,73,4.0,4.0,40,0.00,,OVC034,0.16,VWS V14.00,2013-04-11 06:47:00,
2013-04-10 23:52:00,46.9,23.9,29.32,SSE,156,0.0,0.0,40,0.00,,OVC034,0.16,VWS V14.00,2013-04-11 06:52:00,
2013-04-10 23:58:00,46.9,23.9,29.32,SSE,154,2.7,5.8,40,0.00,,OVC034,0.16,VWS V14.00,2013-04-11 06:58:00,